Home > Products > Valid Products > MTR

000
SAUS43 KDDC 281457
MTRP28
METAR KP28 281456Z AUTO 20009G16KT 31/20 A2986 RMK AO1 SLP092
T03060200 58002





000
SAUS43 KDDC 281410
MTRP28
METAR KP28 281356Z AUTO 17007G17KT 27/19 A2987 RMK AO1 SLP096
T02720194





000
SAUS43 KDDC 281203
MTRP28
METAR KP28 281156Z AUTO 16006KT 24/19 A2987 RMK AO1 SLP094 T02390189
10278 20239 53004





000
SAUS43 KDDC 281203
MTRP28
METAR KP28 281156Z AUTO 16006KT 24/19 A2987 RMK AO1 SLP094 T02390189
10278 20239 53004





000
SAUS43 KDDC 281103
MTRP28
METAR KP28 281056Z AUTO 17007KT 24/19 A2986 RMK AO1 SLP091 T02440189





000
SAUS43 KDDC 281103
MTRP28
METAR KP28 281056Z AUTO 17007KT 24/19 A2986 RMK AO1 SLP091 T02440189





000
SAUS43 KDDC 281003
MTRP28
METAR KP28 280956Z AUTO 16005KT 24/19 A2986 RMK AO1 SLP090 T02440189





000
SAUS43 KDDC 280903
MTRP28
METAR KP28 280856Z AUTO 16007KT 24/19 A2986 RMK AO1 SLP089 T02440194
58006





000
SAUS43 KDDC 280803
MTRP28
METAR KP28 280756Z AUTO 16006KT 26/19 A2986 RMK AO1 SLP091 T02560194





000
SAUS43 KDDC 280703
MTRP28
METAR KP28 280656Z AUTO 16006KT 27/19 A2987 RMK AO1 SLP095 T02670189





000
SAUS43 KDDC 280703
MTRP28
METAR KP28 280656Z AUTO 16006KT 27/19 A2987 RMK AO1 SLP095 T02670189





000
SAUS43 KDDC 280603
MTRP28
METAR KP28 280556Z AUTO 17007KT 28/19 A2987 RMK AO1 SLP095 T02780189
10356 20278 403670228 51010





000
SAUS43 KDDC 280603
MTRP28
METAR KP28 280556Z AUTO 17007KT 28/19 A2987 RMK AO1 SLP095 T02780189
10356 20278 403670228 51010





000
SAUS43 KDDC 280503
MTRP28
METAR KP28 280456Z AUTO 17009KT 29/19 A2987 RMK AO1 SLP093 T02890194





000
SAUS43 KDDC 280503
MTRP28
METAR KP28 280456Z AUTO 17009KT 29/19 A2987 RMK AO1 SLP093 T02890194





000
SAUS43 KDDC 280403
MTRP28
METAR KP28 280356Z AUTO 17009G16KT 140V210 29/21 A2986 RMK AO1
SLP090 T02940206





000
SAUS43 KDDC 280403
MTRP28
METAR KP28 280356Z AUTO 17009G16KT 140V210 29/21 A2986 RMK AO1
SLP090 T02940206





000
SAUS43 KDDC 280303
MTRP28
METAR KP28 280256Z AUTO 15008KT 31/22 A2984 RMK AO1 SLP086 T03060217
53015





000
SAUS43 KDDC 280203
MTRP28
METAR KP28 280156Z AUTO 15009KT 32/22 A2982 RMK AO1 SLP077 T03170222





000
SAUS43 KDDC 280103
MTRP28
METAR KP28 280056Z AUTO 16009G17KT 34/22 A2980 RMK AO1 SLP071
T03390217





000
SAUS43 KDDC 280003
MTRP28
METAR KP28 272356Z AUTO 19011G19KT 36/21 A2980 RMK AO1 SLP070
T03560206 10367 20333 56014





000
SAUS43 KDDC 280003
MTRP28
METAR KP28 272356Z AUTO 19011G19KT 36/21 A2980 RMK AO1 SLP070
T03560206 10367 20333 56014





000
SAUS43 KDDC 272303
MTRP28
METAR KP28 272256Z AUTO 18012G18KT 36/21 A2981 RMK AO1 SLP074
T03610206





000
SAUS43 KDDC 272203
MTRP28
METAR KP28 272156Z AUTO 18011G18KT 130V190 36/19 A2983 RMK AO1
SLP078 T03610189





000
SAUS43 KDDC 272103
MTRP28
METAR KP28 272056Z AUTO 19014G21KT 36/18 A2984 RMK AO1 SLP084
T03610178 58018





000
SAUS43 KDDC 272003
MTRP28
METAR KP28 271956Z AUTO 19012KT 35/20 A2986 RMK AO1 SLP090 T03500200





000
SAUS43 KDDC 271903
MTRP28
METAR KP28 271856Z AUTO 20015G21KT 34/20 A2988 RMK AO1 SLP097
T03440200





000
SAUS43 KDDC 271803
MTRP28
METAR KP28 271756Z AUTO 19013G19KT 33/22 A2989 RMK AO1 SLP102
T03330217 10333 20233 58015





000
SAUS43 KDDC 271657
MTRP28
METAR KP28 271656Z AUTO 17011G17KT 32/22 A2991 RMK AO1 SLP107
T03220217





000
SAUS43 KDDC 271657
MTRP28
METAR KP28 271656Z AUTO 17011G17KT 32/22 A2991 RMK AO1 SLP107
T03220217





000
SAUS43 KDDC 271557
MTRP28
METAR KP28 271556Z AUTO 17008KT 31/22 A2993 RMK AO1 SLP113 T03060222





000
SAUS43 KDDC 271457
MTRP28
METAR KP28 271456Z AUTO 16005KT 28/20 A2994 RMK AO1 SLP119 T02780200
50001





000
SAUS43 KDDC 271357
MTRP28
METAR KP28 271356Z AUTO 15006KT 26/20 A2995 RMK AO1 SLP121 T02560200





000
SAUS43 KDDC 271357
MTRP28
METAR KP28 271356Z AUTO 15006KT 26/20 A2995 RMK AO1 SLP121 T02560200





000
SAUS43 KDDC 271257
MTRP28
METAR KP28 271256Z AUTO 00000KT 24/20 A2994 RMK AO1 SLP119 T02390200





000
SAUS43 KDDC 271158
MTRP28
METAR KP28 271156Z AUTO 11003KT 24/19 A2994 RMK AO1 SLP117 T02390194
10267 20228 58004





000
SAUS43 KDDC 271058
MTRP28
METAR KP28 271056Z AUTO 00000KT 23/19 A2995 RMK AO1 SLP122 T02330194





000
SAUS43 KDDC 270958
MTRP28
METAR KP28 270956Z AUTO 35012KT 24/19 A2997 RMK AO1 SLP129 T02440189





000
SAUS43 KDDC 270858
MTRP28
METAR KP28 270856Z AUTO 36006KT 25/19 A2995 RMK AO1 SLP120 T02500189
50012





000
SAUS43 KDDC 270758
MTRP28
METAR KP28 270756Z AUTO 35005KT 26/23 A2995 RMK AO1 SLP123 T02610228





000
SAUS43 KDDC 270657
MTRP28
METAR KP28 270656Z AUTO 09003KT 27/23 A2993 RMK AO1 SLP114 T02670228





000
SAUS43 KDDC 270657
MTRP28
METAR KP28 270656Z AUTO 09003KT 27/23 A2993 RMK AO1 SLP114 T02670228





000
SAUS43 KDDC 270557
MTRP28
METAR KP28 270556Z AUTO 12007KT 27/23 A2991 RMK AO1 SLP108 T02720228
10344 20267 403610211 50010





000
SAUS43 KDDC 270458
MTRP28
METAR KP28 270456Z AUTO 14004KT 28/22 A2991 RMK AO1 SLP110 T02830222





000
SAUS43 KDDC 270358
MTRP28
METAR KP28 270356Z AUTO 14005KT 28/22 A2989 RMK AO1 SLP102 T02830222





000
SAUS43 KDDC 270258
MTRP28
METAR KP28 270256Z AUTO 13005KT 30/22 A2988 RMK AO1 SLP098 T03000222
53015





000
SAUS43 KDDC 270157
MTRP28
METAR KP28 270156Z AUTO 13007KT 31/22 A2983 RMK AO1 SLP083 T03060222





000
SAUS43 KDDC 270058
MTRP28
METAR KP28 270056Z AUTO 13007KT 33/22 A2983 RMK AO1 SLP083 T03280222





000
SAUS43 KDDC 262358
MTRP28
METAR KP28 262356Z AUTO 14008KT 34/22 A2983 RMK AO1 SLP083 T03440217
10361 20322 56014





000
SAUS43 KDDC 262358
MTRP28
METAR KP28 262356Z AUTO 14008KT 34/22 A2983 RMK AO1 SLP083 T03440217
10361 20322 56014





000
SAUS43 KDDC 262257
MTRP28
METAR KP28 262256Z AUTO 15009G15KT 36/21 A2984 RMK AO1 SLP086
T03560211





000
SAUS43 KDDC 262158
MTRP28
METAR KP28 262156Z AUTO 17009G15KT 36/21 A2986 RMK AO1 SLP090
T03610206





000
SAUS43 KDDC 262058
MTRP28
METAR KP28 262056Z AUTO 17008KT 36/21 A2988 RMK AO1 SLP097 T03560211
56015





000
SAUS43 KDDC 261957
MTRP28
METAR KP28 261956Z AUTO 17008KT 35/21 A2989 RMK AO1 SLP102 T03500211





000
SAUS43 KDDC 261858
MTRP28
METAR KP28 261856Z AUTO 14009KT 34/22 A2990 RMK AO1 SLP106 T03390217





000
SAUS43 KDDC 261758
MTRP28
METAR KP28 261756Z AUTO 11007KT 32/22 A2992 RMK AO1 SLP112 T03220222
10322 20228 50001





000
SAUS43 KDDC 261758
MTRP28
METAR KP28 261756Z AUTO 11007KT 32/22 A2992 RMK AO1 SLP112 T03220222
10322 20228 50001





000
SAUS43 KDDC 261658
MTRP28
METAR KP28 261656Z AUTO 13006KT 31/21 A2993 RMK AO1 SLP114 T03110206





000
SAUS43 KDDC 261557
MTRP28
METAR KP28 261556Z AUTO 14008KT 29/21 A2992 RMK AO1 SLP112 T02890211





000
SAUS43 KDDC 261458
MTRP28
METAR KP28 261456Z AUTO 13006KT 27/21 A2992 RMK AO1 SLP112 T02720211
51016





000
SAUS43 KDDC 261357
MTRP28
METAR KP28 261356Z AUTO 14007KT 26/21 A2991 RMK AO1 SLP111 T02610211





000
SAUS43 KDDC 261357
MTRP28
METAR KP28 261356Z AUTO 14007KT 26/21 A2991 RMK AO1 SLP111 T02610211





000
SAUS43 KDDC 261258
MTRP28
METAR KP28 261256Z AUTO 07003KT 24/21 A2989 RMK AO1 SLP102 T02390206





000
SAUS43 KDDC 261258
MTRP28
METAR KP28 261256Z AUTO 07003KT 24/21 A2989 RMK AO1 SLP102 T02390206





000
SAUS43 KDDC 261158
MTRP28
METAR KP28 261156Z AUTO 25005KT 23/19 A2987 RMK AO1 SLP094 60024
70024 T02280189 10289 20211 56023





000
SAUS43 KDDC 261158
MTRP28
METAR KP28 261156Z AUTO 25005KT 23/19 A2987 RMK AO1 SLP094 60024
70024 T02280189 10289 20211 56023





000
SAUS43 KDDC 261057
MTRP28
METAR KP28 261056Z AUTO 26007KT 22/19 A2988 RMK AO1 SLP097 T02220194





000
SAUS43 KDDC 261057
MTRP28
METAR KP28 261056Z AUTO 26007KT 22/19 A2988 RMK AO1 SLP097 T02220194





000
SAUS43 KDDC 260958
MTRP28
METAR KP28 260956Z AUTO 20005KT 22/19 A2988 RMK AO1 SLP097 P0006
T02220189





000
SAUS43 KDDC 260858
MTRP28
METAR KP28 260856Z AUTO 18012KT 23/19 A2994 RMK AO1 PRESFR SLP118
P0003 60018 T02280194 58009





000
SAUS43 KDDC 260858
MTRP28
METAR KP28 260856Z AUTO 18012KT 23/19 A2994 RMK AO1 PRESFR SLP118
P0003 60018 T02280194 58009





000
SAUS43 KDDC 260757
MTRP28
METAR KP28 260756Z AUTO 26009KT 23/21 A2997 RMK AO1 SLP130 P0013
T02330211





000
SAUS43 KDDC 260757
MTRP28
METAR KP28 260756Z AUTO 26009KT 23/21 A2997 RMK AO1 SLP130 P0013
T02330211





000
SAUS43 KDDC 260657
MTRP28
METAR KP28 260656Z AUTO 36010KT 24/18 A2997 RMK AO1 PK WND
31029/0604 SLP129 P0002 T02390178





000
SAUS43 KDDC 260657
MTRP28
METAR KP28 260656Z AUTO 36010KT 24/18 A2997 RMK AO1 PK WND
31029/0604 SLP129 P0002 T02390178





000
SAUS43 KDDC 260558
MTRP28
METAR KP28 260556Z AUTO 35010G21KT 29/21 A2997 RMK AO1 SLP126
T02890211 10361 20267 403720239 53031





000
SAUS43 KDDC 260558
MTRP28
METAR KP28 260556Z AUTO 35010G21KT 29/21 A2997 RMK AO1 SLP126
T02890211 10361 20267 403720239 53031





000
SAUS43 KDDC 260458
MTRP28
METAR KP28 260456Z AUTO 00000KT 29/22 A2991 RMK AO1 SLP107 T02890217





000
SAUS43 KDDC 260458
MTRP28
METAR KP28 260456Z AUTO 00000KT 29/22 A2991 RMK AO1 SLP107 T02890217





000
SAUS43 KDDC 260357
MTRP28
METAR KP28 260356Z AUTO 16006KT 29/22 A2989 RMK AO1 SLP101 T02940217





000
SAUS43 KDDC 260258
MTRP28
METAR KP28 260256Z AUTO 16008G17KT 31/22 A2987 RMK AO1 SLP094
T03060217 53010





000
SAUS43 KDDC 260158
MTRP28
METAR KP28 260156Z AUTO 15009KT 32/21 A2986 RMK AO1 SLP091 T03170206





000
SAUS43 KDDC 260058
MTRP28
METAR KP28 260056Z AUTO 16006KT 34/19 A2984 RMK AO1 SLP084 T03440194





000
SAUS43 KDDC 260058
MTRP28
METAR KP28 260056Z AUTO 16006KT 34/19 A2984 RMK AO1 SLP084 T03440194





000
SAUS43 KDDC 252357
MTRP28
METAR KP28 252356Z AUTO 17008KT 36/19 A2984 RMK AO1 SLP083 T03610194
10372 20339 56011





000
SAUS43 KDDC 252357
MTRP28
METAR KP28 252356Z AUTO 17008KT 36/19 A2984 RMK AO1 SLP083 T03610194
10372 20339 56011





000
SAUS43 KDDC 252258
MTRP28
METAR KP28 252256Z AUTO 17009KT 37/19 A2985 RMK AO1 SLP085 T03670189





000
SAUS43 KDDC 252157
MTRP28
METAR KP28 252156Z AUTO 16009G17KT 37/20 A2986 RMK AO1 SLP089
T03720200





000
SAUS43 KDDC 252157
MTRP28
METAR KP28 252156Z AUTO 16009G17KT 37/20 A2986 RMK AO1 SLP089
T03720200





000
SAUS43 KDDC 252058
MTRP28
METAR KP28 252056Z AUTO 17010G15KT 37/20 A2987 RMK AO1 SLP094
T03670200 57019





000
SAUS43 KDDC 251958
MTRP28
METAR KP28 251956Z AUTO 14010G18KT 36/21 A2989 RMK AO1 SLP100
T03610206





000
SAUS43 KDDC 251858
MTRP28
METAR KP28 251856Z AUTO 14007KT 35/21 A2991 RMK AO1 SLP108 T03500206





000
SAUS43 KDDC 251757
MTRP28
METAR KP28 251756Z AUTO 16007KT 130V200 35/21 A2993 RMK AO1 SLP114
T03500206 10350 20244 56008





000
SAUS43 KDDC 251757
MTRP28
METAR KP28 251756Z AUTO 16007KT 130V200 35/21 A2993 RMK AO1 SLP114
T03500206 10350 20244 56008





000
SAUS43 KDDC 251658
MTRP28
METAR KP28 251656Z AUTO 17008KT 33/21 A2993 RMK AO1 SLP116 T03280206





000
SAUS43 KDDC 251558
MTRP28
METAR KP28 251556Z AUTO 17007KT 31/21 A2994 RMK AO1 SLP117 T03060206





    US Dept of Commerce
    National Oceanic and Atmospheric Administration
    National Weather Service
    1325 East West Highway
    Silver Spring, MD 20910
    Page Author: NWS Internet Services Team
Disclaimer
Information Quality
Credits
Glossary
Privacy Policy
Freedom of Information Act (FOIA)
About Us
Career Opportunities